Time;durP1;ratioP1;P1;durP2;ratioP2;P2;SDS_P1;SDS_P2;PMS_P1;PMS_P2;Temp;Humidity;BMP_temperature;BMP_pressure;BME280_temperature;BME280_humidity;BME280_pressure;Samples;Min_cycle;Max_cycle;Signal;HPM_P1;HPM_P2
2021/09/01 00:01:50;;;;;;;11.90;8.80;;;;;;;11.07;100.00;98821.66;1759578;81;20928;-64
2021/09/01 00:04:17;;;;;;;11.12;9.20;;;;;;;11.03;100.00;98819.27;1760017;81;20941;-64
2021/09/01 00:06:45;;;;;;;12.35;8.98;;;;;;;10.99;100.00;98814.97;1759739;80;20920;-65
2021/09/01 00:09:12;;;;;;;13.53;9.63;;;;;;;10.97;100.00;98819.81;1760056;81;20857;-65
2021/09/01 00:11:41;;;;;;;15.15;9.75;;;;;;;10.91;100.00;98815.00;1760090;80;21398;-63
2021/09/01 00:14:08;;;;;;;9.80;8.80;;;;;;;10.90;100.00;98817.95;1755408;80;20945;-65
2021/09/01 00:16:35;;;;;;;10.48;9.38;;;;;;;10.86;100.00;98817.70;1743895;82;20918;-64
2021/09/01 00:19:05;;;;;;;10.58;8.53;;;;;;;10.84;100.00;98814.48;1744043;82;21101;-66
2021/09/01 00:21:32;;;;;;;13.53;9.65;;;;;;;10.81;100.00;98812.91;1743768;82;21408;-65
2021/09/01 00:23:59;;;;;;;11.12;9.38;;;;;;;10.79;100.00;98806.45;1744003;81;21383;-66
2021/09/01 00:26:26;;;;;;;18.17;10.00;;;;;;;10.76;100.00;98801.64;1743725;81;20863;-65
2021/09/01 00:28:53;;;;;;;15.88;9.58;;;;;;;10.72;100.00;98805.39;1743909;81;21372;-66
2021/09/01 00:31:20;;;;;;;14.53;8.85;;;;;;;10.66;100.00;98805.70;1743795;81;21214;-65
2021/09/01 00:33:47;;;;;;;12.55;8.88;;;;;;;10.62;100.00;98805.97;1720658;82;20934;-65
2021/09/01 00:36:14;;;;;;;11.57;9.78;;;;;;;10.60;100.00;98808.11;1743952;82;20866;-65
2021/09/01 00:38:40;;;;;;;17.15;10.43;;;;;;;10.58;100.00;98808.91;1743845;81;20945;-66
2021/09/01 00:41:08;;;;;;;11.40;9.58;;;;;;;10.54;100.00;98809.22;1744036;81;21451;-66
2021/09/01 00:43:34;;;;;;;9.88;8.88;;;;;;;10.54;100.00;98812.69;1744039;81;21697;-65
2021/09/01 00:46:01;;;;;;;12.70;9.35;;;;;;;10.57;100.00;98808.66;1743597;82;20941;-65
2021/09/01 00:48:28;;;;;;;11.90;9.25;;;;;;;10.57;100.00;98812.69;1743719;81;20906;-66
2021/09/01 00:50:55;;;;;;;10.78;9.55;;;;;;;10.56;100.00;98817.77;1743744;81;20910;-64
2021/09/01 00:53:24;;;;;;;11.78;10.00;;;;;;;10.57;100.00;98818.05;1743915;81;20902;-64
2021/09/01 00:55:50;;;;;;;13.58;10.08;;;;;;;10.58;100.00;98819.65;1743747;81;21078;-64
2021/09/01 00:58:17;;;;;;;11.03;9.88;;;;;;;10.54;100.00;98815.38;1743991;81;20925;-64
2021/09/01 01:01:15;;;;;;;11.50;9.13;;;;;;;10.57;100.00;98820.73;1743740;81;20901;-65
2021/09/01 01:03:14;;;;;;;15.48;9.88;;;;;;;10.59;100.00;98810.54;1710655;83;20999;-65
2021/09/01 01:05:41;;;;;;;16.07;9.95;;;;;;;10.64;100.00;98813.21;1700516;83;20902;-65
2021/09/01 01:08:10;;;;;;;14.20;9.27;;;;;;;10.65;100.00;98804.87;1700417;83;21096;-65
2021/09/01 01:10:38;;;;;;;11.40;9.88;;;;;;;10.69;100.00;98811.86;1700122;83;21009;-65
2021/09/01 01:13:07;;;;;;;13.32;10.18;;;;;;;10.67;100.00;98807.29;1700053;84;20968;-67
2021/09/01 01:15:40;;;;;;;13.25;9.88;;;;;;;10.65;100.00;98803.53;1721771;83;21296;-66
2021/09/01 01:18:09;;;;;;;14.50;10.15;;;;;;;10.61;100.00;98806.51;1728832;81;20974;-65
2021/09/01 01:20:38;;;;;;;15.40;10.20;;;;;;;10.58;100.00;98802.20;1728619;81;21112;-65
2021/09/01 01:23:07;;;;;;;;;;;;;;;10.50;100.00;98794.97;1730443;81;21465;-65
2021/09/01 01:25:39;;;;;;;15.30;10.80;;;;;;;10.50;100.00;98790.95;1697937;84;20085;-63
2021/09/01 01:28:06;;;;;;;12.37;10.23;;;;;;;10.46;100.00;98793.93;1709626;84;21401;-63
2021/09/01 01:30:33;;;;;;;15.10;10.80;;;;;;;10.41;100.00;98791.77;1710134;84;20917;-63
2021/09/01 01:33:00;;;;;;;15.15;10.95;;;;;;;10.42;100.00;98792.05;1709855;84;21152;-66
2021/09/01 01:35:29;;;;;;;16.80;10.05;;;;;;;10.34;100.00;98793.92;1709849;83;20866;-66
2021/09/01 01:37:57;;;;;;;11.30;10.10;;;;;;;10.27;100.00;98788.28;1728696;83;21360;-66
2021/09/01 01:40:24;;;;;;;14.47;11.05;;;;;;;10.27;100.00;98786.95;1728153;83;21374;-66
2021/09/01 01:42:54;;;;;;;12.13;10.90;;;;;;;10.24;100.00;98782.13;1728694;83;20979;-66
2021/09/01 01:45:22;;;;;;;12.00;10.78;;;;;;;10.20;100.00;98778.91;1700652;83;21255;-66
2021/09/01 01:47:48;;;;;;;17.33;12.23;;;;;;;10.13;100.00;98772.47;1728654;82;21026;-67
2021/09/01 01:50:15;;;;;;;15.35;11.00;;;;;;;10.04;100.00;98770.06;1728404;82;20987;-67
2021/09/01 01:52:42;;;;;;;14.73;10.38;;;;;;;9.99;100.00;98768.73;1728768;82;21401;-66
2021/09/01 01:55:10;;;;;;;13.22;10.88;;;;;;;9.94;100.00;98770.88;1728379;83;21069;-66
2021/09/01 01:57:36;;;;;;;13.13;10.53;;;;;;;9.92;100.00;98766.85;1728595;83;21797;-67
2021/09/01 02:00:06;;;;;;;12.53;10.23;;;;;;;9.97;100.00;98773.03;1728247;82;20975;-67
2021/09/01 02:02:35;;;;;;;12.43;10.88;;;;;;;9.95;100.00;98765.80;1727906;83;20896;-67
2021/09/01 02:05:01;;;;;;;15.75;12.20;;;;;;;9.89;100.00;98764.17;1728500;83;20958;-66
2021/09/01 02:07:29;;;;;;;15.08;12.03;;;;;;;9.90;100.00;98763.12;1728406;81;20959;-66
2021/09/01 02:09:56;;;;;;;13.67;12.20;;;;;;;9.95;100.00;98759.09;1728638;83;21183;-67
2021/09/01 02:12:23;;;;;;;15.70;11.30;;;;;;;9.95;100.00;98752.94;1728560;81;21315;-67
2021/09/01 02:14:49;;;;;;;15.30;12.80;;;;;;;9.92;100.00;98750.77;1722662;82;20904;-67
2021/09/01 02:17:16;;;;;;;69.85;30.72;;;;;;;9.82;100.00;98751.57;1710292;83;21418;-66
2021/09/01 02:19:43;;;;;;;19.07;14.15;;;;;;;9.80;100.00;98748.34;1710247;82;20976;-67
2021/09/01 02:22:09;;;;;;;16.77;11.83;;;;;;;9.79;100.00;98746.21;1710398;84;21154;-67
2021/09/01 02:24:36;;;;;;;20.72;11.33;;;;;;;9.79;100.00;98746.75;1709967;82;20891;-66
2021/09/01 02:27:03;;;;;;;13.00;11.03;;;;;;;9.82;100.00;98740.85;1710452;83;20861;-66
2021/09/01 02:29:30;;;;;;;15.28;11.35;;;;;;;9.85;100.00;98739.00;1710376;82;20925;-66
2021/09/01 02:31:56;;;;;;;15.10;13.00;;;;;;;9.87;100.00;98730.13;1710708;84;20865;-65
2021/09/01 02:34:23;;;;;;;16.20;12.47;;;;;;;9.88;100.00;98737.91;1710195;82;21113;-65
2021/09/01 02:36:49;;;;;;;17.40;12.33;;;;;;;9.89;100.00;98737.37;1710229;83;20948;-65
2021/09/01 02:39:16;;;;;;;12.47;11.18;;;;;;;9.91;100.00;98735.23;1710300;83;20913;-64
2021/09/01 02:41:43;;;;;;;16.05;11.75;;;;;;;9.87;100.00;98736.83;1710346;83;20913;-66
2021/09/01 02:44:10;;;;;;;14.30;12.30;;;;;;;9.90;100.00;98732.30;1710484;83;20917;-66
2021/09/01 02:46:37;;;;;;;14.05;12.55;;;;;;;9.96;100.00;98737.90;1710377;83;21105;-66
2021/09/01 02:49:03;;;;;;;16.30;12.25;;;;;;;9.98;100.00;98740.32;1710199;83;20972;-66
2021/09/01 02:51:30;;;;;;;13.05;11.68;;;;;;;9.97;100.00;98740.87;1710419;83;20897;-66
2021/09/01 02:53:58;;;;;;;12.82;11.53;;;;;;;9.97;100.00;98734.16;1710438;82;20948;-66
2021/09/01 02:56:24;;;;;;;19.50;11.05;;;;;;;9.95;100.00;98732.28;1710376;83;20857;-65
2021/09/01 02:58:52;;;;;;;16.23;12.10;;;;;;;9.96;100.00;98725.84;1710368;82;21144;-66
2021/09/01 03:01:18;;;;;;;13.48;12.07;;;;;;;9.95;100.00;98722.91;1710283;83;20969;-67
2021/09/01 03:03:45;;;;;;;12.98;11.63;;;;;;;9.92;100.00;98718.60;1710057;82;20900;-67
2021/09/01 03:06:12;;;;;;;17.23;12.78;;;;;;;9.89;100.00;98725.30;1710083;83;20877;-67
2021/09/01 03:08:39;;;;;;;15.90;11.85;;;;;;;9.87;100.00;98728.78;1710088;82;20885;-67
2021/09/01 03:11:05;;;;;;;14.80;11.60;;;;;;;9.88;100.00;98728.53;1710539;84;21082;-67
2021/09/01 03:13:33;;;;;;;17.02;11.15;;;;;;;9.93;100.00;98729.06;1710128;83;20912;-67
2021/09/01 03:16:01;;;;;;;15.03;12.13;;;;;;;9.96;100.00;98723.16;1710119;82;20912;-67
2021/09/01 03:18:28;;;;;;;12.98;11.53;;;;;;;9.99;100.00;98719.92;1710361;83;20944;-67
2021/09/01 03:20:55;;;;;;;13.53;11.53;;;;;;;9.99;100.00;98717.25;1710027;83;20861;-67
2021/09/01 03:23:21;;;;;;;18.15;12.10;;;;;;;10.01;100.00;98716.44;1710327;83;21164;-67
2021/09/01 03:25:48;;;;;;;15.03;11.90;;;;;;;10.02;100.00;98715.39;1710584;83;21478;-67
2021/09/01 03:28:14;;;;;;;14.53;11.15;;;;;;;10.07;100.00;98719.40;1710019;83;20837;-67
2021/09/01 03:30:41;;;;;;;12.13;10.88;;;;;;;10.08;100.00;98715.63;1710220;83;20995;-67
2021/09/01 03:33:07;;;;;;;14.13;11.35;;;;;;;10.11;100.00;98718.31;1710090;83;21437;-67
2021/09/01 03:35:34;;;;;;;14.73;11.20;;;;;;;10.18;100.00;98722.06;1710337;83;21328;-67
2021/09/01 03:38:00;;;;;;;13.28;10.90;;;;;;;10.27;100.00;98713.19;1710173;83;20944;-67
2021/09/01 03:40:29;;;;;;;12.15;10.82;;;;;;;10.35;100.00;98709.17;1710296;82;20897;-66
2021/09/01 03:42:55;;;;;;;17.73;11.60;;;;;;;10.45;100.00;98712.36;1710286;83;20865;-67
2021/09/01 03:45:22;;;;;;;12.45;10.90;;;;;;;10.52;100.00;98710.20;1710465;83;20877;-67
2021/09/01 03:47:48;;;;;;;16.25;11.35;;;;;;;10.57;100.00;98716.88;1710249;83;21071;-67
2021/09/01 03:50:16;;;;;;;17.48;12.75;;;;;;;10.61;100.00;98709.91;1710320;82;20944;-67
2021/09/01 03:52:43;;;;;;;18.85;13.30;;;;;;;10.65;100.00;98707.45;1710319;83;20861;-67
2021/09/01 03:55:10;;;;;;;15.63;13.93;;;;;;;10.66;100.00;98704.52;1710471;83;21016;-67
2021/09/01 03:57:37;;;;;;;18.42;13.28;;;;;;;10.67;100.00;98707.45;1710177;83;20854;-65
2021/09/01 04:00:08;;;;;;;18.05;13.28;;;;;;;10.68;100.00;98707.73;1710532;83;21091;-66
2021/09/01 04:02:41;;;;;;;14.55;13.05;;;;;;;10.71;100.00;98713.09;1710038;84;21008;-66
2021/09/01 04:05:08;;;;;;;16.85;13.28;;;;;;;10.73;100.00;98717.09;1710706;83;20881;-67
2021/09/01 04:07:35;;;;;;;14.38;12.88;;;;;;;10.79;100.00;98723.23;1710046;82;21047;-66
2021/09/01 04:10:01;;;;;;;14.65;12.82;;;;;;;10.89;100.00;98732.59;1710420;83;20963;-66
2021/09/01 04:12:28;;;;;;;18.42;11.73;;;;;;;10.98;100.00;98734.72;1710385;83;21414;-66
2021/09/01 04:14:55;;;;;;;15.73;11.67;;;;;;;11.02;100.00;98727.69;1711336;82;21284;-67
2021/09/01 04:17:22;;;;;;;14.23;10.30;;;;;;;11.03;100.00;98735.48;1720489;82;20861;-67
2021/09/01 04:19:49;;;;;;;13.48;10.13;;;;;;;11.00;100.00;98736.55;1720374;82;20991;-66
2021/09/01 04:22:16;;;;;;;12.53;10.55;;;;;;;10.98;100.00;98736.85;1720443;82;21022;-65
2021/09/01 04:24:42;;;;;;;22.30;9.73;;;;;;;10.98;100.00;98737.40;1720852;83;21107;-66
2021/09/01 04:27:09;;;;;;;12.45;9.93;;;;;;;10.99;100.00;98733.08;1720650;83;20912;-67
2021/09/01 04:29:36;;;;;;;15.50;10.03;;;;;;;11.03;100.00;98737.38;1720465;82;20916;-67
2021/09/01 04:32:03;;;;;;;10.93;9.83;;;;;;;11.09;100.00;98734.91;1720648;82;20880;-67
2021/09/01 04:34:30;;;;;;;21.93;11.22;;;;;;;11.15;100.00;98733.27;1720787;82;21453;-67
2021/09/01 04:36:57;;;;;;;14.15;10.58;;;;;;;11.32;100.00;98738.27;1720383;82;21726;-67
2021/09/01 04:39:23;;;;;;;15.40;8.78;;;;;;;11.53;100.00;98738.13;1719782;82;20975;-67
2021/09/01 04:41:51;;;;;;;13.38;9.58;;;;;;;11.68;100.00;98742.04;1720706;81;21425;-67
2021/09/01 04:44:17;;;;;;;14.60;9.78;;;;;;;11.83;100.00;98738.98;1721055;83;20999;-67
2021/09/01 04:46:44;;;;;;;12.23;9.88;;;;;;;11.97;100.00;98742.66;1721092;81;20982;-68
2021/09/01 04:49:11;;;;;;;24.90;15.55;;;;;;;12.16;100.00;98733.34;1715274;83;21120;-68
2021/09/01 04:51:37;;;;;;;27.32;14.73;;;;;;;12.26;100.00;98737.27;1745095;81;20968;-67
2021/09/01 04:54:04;;;;;;;20.88;15.45;;;;;;;12.32;100.00;98739.36;1718993;83;20930;-68
2021/09/01 04:56:30;;;;;;;31.00;17.98;;;;;;;12.38;100.00;98736.89;1745243;82;21458;-67
2021/09/01 04:58:57;;;;;;;28.17;16.55;;;;;;;12.45;100.00;98746.77;1718822;83;21001;-67
2021/09/01 05:01:24;;;;;;;24.00;16.35;;;;;;;12.54;100.00;98743.72;1714147;82;21143;-68
2021/09/01 05:03:51;;;;;;;24.47;14.87;;;;;;;12.64;100.00;98745.47;1690487;82;21049;-66
2021/09/01 05:06:18;;;;;;;24.12;15.38;;;;;;;12.69;100.00;98742.75;1720658;82;20983;-67
2021/09/01 05:08:44;;;;;;;23.42;15.32;;;;;;;12.74;100.00;98741.86;1748032;80;20999;-67
2021/09/01 05:11:11;;;;;;;21.93;14.75;;;;;;;12.82;100.00;98737.20;1751971;82;20933;-66
2021/09/01 05:13:38;;;;;;;19.50;10.63;;;;;;;12.90;100.00;98734.41;1748415;81;21100;-67
2021/09/01 05:16:05;;;;;;;15.28;9.30;;;;;;;12.98;100.00;98733.20;1747227;80;20881;-67
2021/09/01 05:18:32;;;;;;;17.32;9.93;;;;;;;12.97;100.00;98734.86;1740758;80;20932;-67
2021/09/01 05:20:59;;;;;;;12.95;8.90;;;;;;;12.98;100.00;98732.41;1742198;80;20933;-66
2021/09/01 05:23:34;;;;;;;14.15;8.48;;;;;;;13.06;100.00;98739.31;1742640;82;21488;-67
2021/09/01 05:26:05;;;;;;;12.60;8.35;;;;;;;13.07;100.00;98739.55;1759671;80;21702;-68
2021/09/01 05:28:35;;;;;;;13.25;8.88;;;;;;;13.03;100.00;98747.16;1742261;80;21427;-66
2021/09/01 05:31:04;;;;;;;19.07;10.08;;;;;;;12.91;100.00;98745.42;1732517;81;20872;-68
2021/09/01 05:33:34;;;;;;;12.68;9.65;;;;;;;12.80;100.00;98752.29;1732626;81;20960;-68
2021/09/01 05:36:02;;;;;;;9.95;8.85;;;;;;;12.76;100.00;98750.45;1731723;80;20924;-66
2021/09/01 05:38:32;;;;;;;16.25;9.98;;;;;;;12.74;100.00;98753.45;1709827;82;21080;-67
2021/09/01 05:40:59;;;;;;;12.65;10.82;;;;;;;12.75;100.00;98751.00;1732522;82;21011;-64
2021/09/01 05:43:26;;;;;;;17.20;10.10;;;;;;;12.75;100.00;98742.92;1777709;80;20964;-63
2021/09/01 05:45:53;;;;;;;18.07;11.05;;;;;;;12.81;100.00;98745.83;1782442;80;20956;-65
2021/09/01 05:48:21;;;;;;;13.80;9.23;;;;;;;12.93;100.00;98744.59;1728860;80;20895;-65
2021/09/01 05:50:53;;;;;;;11.70;9.23;;;;;;;13.05;100.00;98748.47;1737899;82;21188;-65
2021/09/01 05:53:21;;;;;;;13.00;9.63;;;;;;;13.20;100.00;98749.36;1743522;82;20909;-63
2021/09/01 05:55:52;;;;;;;16.23;9.78;;;;;;;13.32;100.00;98752.45;1743643;82;20996;-65
2021/09/01 05:58:20;;;;;;;12.33;9.63;;;;;;;13.38;100.00;98749.16;1743553;81;20929;-65
2021/09/01 06:00:57;;;;;;;17.48;10.95;;;;;;;13.35;100.00;98749.20;1743771;82;21403;-62
2021/09/01 06:03:32;;;;;;;14.33;10.00;;;;;;;13.38;100.00;98742.42;1743580;82;21128;-62
2021/09/01 06:06:01;;;;;;;19.50;10.55;;;;;;;13.49;100.00;98748.70;1739974;81;20968;-61
2021/09/01 06:08:33;;;;;;;18.10;11.85;;;;;;;13.59;100.00;98750.99;1740481;81;20874;-61
2021/09/01 06:11:03;;;;;;;21.33;12.80;;;;;;;13.69;100.00;98753.00;1741977;82;20871;-62
2021/09/01 06:13:31;;;;;;;17.07;10.53;;;;;;;13.72;100.00;98756.45;1741128;81;20942;-62
2021/09/01 06:15:58;;;;;;;21.25;11.80;;;;;;;13.83;100.00;98758.44;1745961;80;21123;-61
2021/09/01 06:18:25;;;;;;;17.15;11.33;;;;;;;13.88;100.00;98761.05;1758183;80;20845;-62
2021/09/01 06:20:53;;;;;;;12.53;10.45;;;;;;;13.94;100.00;98762.58;1758356;80;20897;-62
2021/09/01 06:23:20;;;;;;;12.00;9.88;;;;;;;13.97;100.00;98769.28;1758093;81;21207;-61
2021/09/01 06:25:47;;;;;;;15.95;10.60;;;;;;;13.96;100.00;98761.47;1758187;81;20858;-62
2021/09/01 06:28:15;;;;;;;17.42;10.43;;;;;;;13.93;100.00;98762.30;1758434;81;20890;-62
2021/09/01 06:30:41;;;;;;;13.13;10.78;;;;;;;13.86;100.00;98769.97;1757926;81;20901;-61
2021/09/01 06:33:10;;;;;;;14.18;10.25;;;;;;;13.90;100.00;98766.16;1758208;81;20996;-63
2021/09/01 06:35:38;;;;;;;15.50;10.55;;;;;;;13.93;100.00;98775.80;1758200;81;20913;-62
2021/09/01 06:38:06;;;;;;;24.70;12.03;;;;;;;13.93;100.00;98775.80;1758206;81;20925;-62
2021/09/01 06:40:32;;;;;;;;;;;;;;;13.94;100.00;98782.81;1760815;80;21086;-63
2021/09/01 06:43:00;;;;;;;12.82;10.18;;;;;;;13.97;100.00;98787.38;1758096;81;20069;-62
2021/09/01 06:45:27;;;;;;;14.43;11.53;;;;;;;13.94;100.00;98796.30;1758141;80;20902;-63
2021/09/01 06:47:53;;;;;;;17.77;14.10;;;;;;;13.91;100.00;98795.55;1758122;80;20926;-62
2021/09/01 06:50:23;;;;;;;17.82;13.65;;;;;;;13.93;100.00;98794.68;1758052;81;20925;-63
2021/09/01 06:52:49;;;;;;;15.18;12.37;;;;;;;13.96;100.00;98792.50;1758713;80;21737;-65
2021/09/01 06:55:16;;;;;;;19.70;12.75;;;;;;;13.99;100.00;98786.50;1758119;80;20850;-64
2021/09/01 06:57:43;;;;;;;15.32;11.60;;;;;;;14.01;100.00;98788.36;1738890;81;20901;-63
2021/09/01 07:00:13;;;;;;;15.88;10.85;;;;;;;14.09;100.00;98786.36;1766001;80;21735;-64
2021/09/01 07:02:40;;;;;;;16.60;11.88;;;;;;;14.17;100.00;98792.97;1758029;80;20910;-65
2021/09/01 07:05:08;;;;;;;18.65;12.88;;;;;;;14.28;100.00;98791.16;1759598;81;21767;-65
2021/09/01 07:07:34;;;;;;;17.35;12.65;;;;;;;14.33;100.00;98788.38;1740155;81;20987;-65
2021/09/01 07:10:01;;;;;;;19.65;12.28;;;;;;;14.45;100.00;98783.02;1759549;81;20877;-65
2021/09/01 07:12:29;;;;;;;16.93;12.13;;;;;;;14.58;100.00;98786.34;1759497;81;20894;-65
2021/09/01 07:14:55;;;;;;;17.75;11.97;;;;;;;14.71;100.00;98782.83;1741081;81;20900;-64
2021/09/01 07:17:27;;;;;;;10.72;9.53;;;;;;;14.89;100.00;98781.68;1748044;81;21260;-65
2021/09/01 07:19:53;;;;;;;14.68;10.18;;;;;;;15.08;100.00;98785.62;1747236;82;20895;-65
2021/09/01 07:22:30;;;;;;;13.20;9.63;;;;;;;15.21;100.00;98786.97;1749439;82;20949;-65
2021/09/01 07:24:58;;;;;;;16.37;9.98;;;;;;;15.28;100.00;98788.45;1749576;82;21383;-65
2021/09/01 07:27:25;;;;;;;14.53;9.83;;;;;;;15.39;100.00;98787.14;1749764;82;20923;-65
2021/09/01 07:30:30;;;;;;;10.65;8.58;;;;;;;15.52;100.00;98784.14;1731785;82;21110;-66
2021/09/01 07:32:56;;;;;;;17.95;10.15;;;;;;;15.69;100.00;98783.49;1680953;83;21047;-65
2021/09/01 07:35:24;;;;;;;20.10;10.50;;;;;;;15.78;100.00;98795.22;1676812;84;20988;-66
2021/09/01 07:37:51;;;;;;;14.33;10.88;;;;;;;15.78;100.00;98790.61;1676582;85;21031;-65
2021/09/01 07:40:19;;;;;;;13.32;9.88;;;;;;;15.76;100.00;98792.02;1679104;85;21107;-66
2021/09/01 07:42:47;;;;;;;10.68;8.28;;;;;;;15.78;100.00;98784.40;1679722;85;20906;-66
2021/09/01 07:45:15;;;;;;;9.25;7.67;;;;;;;15.79;100.00;98788.69;1677867;85;20866;-66
2021/09/01 07:47:54;;;;;;;11.83;8.58;;;;;;;15.76;100.00;98786.05;1677687;85;21062;-66
2021/09/01 07:50:26;;;;;;;14.65;9.23;;;;;;;15.77;100.00;98794.40;1682649;83;20998;-66
2021/09/01 07:52:53;;;;;;;8.50;7.53;;;;;;;15.76;100.00;98790.11;1682698;83;21063;-65
2021/09/01 07:55:19;;;;;;;12.18;7.72;;;;;;;15.70;100.00;98782.41;1678333;83;21103;-64
2021/09/01 07:57:47;;;;;;;11.30;8.08;;;;;;;15.63;100.00;98786.32;1678444;85;21359;-65
2021/09/01 08:00:15;;;;;;;10.43;8.33;;;;;;;15.63;100.00;98779.55;1678149;85;20877;-65
2021/09/01 08:02:44;;;;;;;9.63;8.63;;;;;;;15.69;100.00;98780.23;1681986;85;20923;-65
2021/09/01 08:05:10;;;;;;;10.15;8.25;;;;;;;15.65;100.00;98783.28;1691549;83;27032;-64
2021/09/01 08:07:37;;;;;;;12.90;8.30;;;;;;;15.61;100.00;98789.87;1689618;84;21120;-65
2021/09/01 08:10:06;;;;;;;12.30;8.48;;;;;;;15.61;100.00;98784.47;1708721;82;21361;-65
2021/09/01 08:12:33;;;;;;;10.80;8.30;;;;;;;15.73;100.00;98784.52;1717578;82;20953;-65
2021/09/01 08:14:59;;;;;;;14.70;8.33;;;;;;;15.75;100.00;98787.69;1730960;82;20972;-64
2021/09/01 08:17:26;;;;;;;11.15;9.43;;;;;;;15.78;100.00;98785.75;1742384;82;21004;-64
2021/09/01 08:27:12;;;;;;;9.55;8.00;;;;;;;16.11;100.00;98780.08;1776870;79;20899;-65
2021/09/01 08:58:52;;;;;;;8.83;6.85;;;;;;;17.09;100.00;98782.59;1773258;80;20879;-63
2021/09/01 09:01:48;;;;;;;8.68;6.65;;;;;;;17.19;100.00;98779.36;1754333;79;20945;-64
2021/09/01 09:04:23;;;;;;;9.53;6.85;;;;;;;17.14;100.00;98783.80;1750833;82;20987;-63
2021/09/01 09:06:59;;;;;;;10.68;8.03;;;;;;;17.27;100.00;98779.92;1704966;82;20989;-64
2021/09/01 09:09:30;;;;;;;11.43;8.18;;;;;;;17.40;100.00;98777.64;1749351;80;21104;-64
2021/09/01 09:11:58;;;;;;;11.65;7.42;;;;;;;17.61;100.00;98779.72;1749141;80;20957;-64
2021/09/01 09:14:31;;;;;;;;;;;;;;;17.95;100.00;98777.58;1751807;81;20967;-64
2021/09/01 09:17:12;;;;;;;11.60;6.55;;;;;;;18.13;100.00;98784.59;1740646;81;20099;-64
2021/09/01 09:19:51;;;;;;;10.08;7.03;;;;;;;18.01;100.00;98785.81;1735076;81;21430;-64
2021/09/01 09:22:23;;;;;;;7.70;6.62;;;;;;;18.21;100.00;98786.48;1737349;82;20991;-64
2021/09/01 09:25:12;;;;;;;7.95;6.58;;;;;;;18.36;100.00;98778.94;1737066;82;21383;-63
2021/09/01 09:27:53;;;;;;;6.97;5.80;;;;;;;18.68;100.00;98786.27;1737960;80;20920;-65
2021/09/01 09:30:28;;;;;;;13.32;6.12;;;;;;;18.71;100.00;98790.48;1739205;80;21430;-65
2021/09/01 09:33:09;;;;;;;14.98;6.58;;;;;;;18.88;100.00;98788.84;1732767;81;21014;-65
2021/09/01 09:36:02;;;;;;;9.73;5.10;;;;;;;18.97;100.00;98786.32;1732582;82;20996;-66
2021/09/01 09:38:41;;;;;;;13.08;5.97;;;;;;;19.25;100.00;98790.70;1736457;81;20906;-65
2021/09/01 09:41:25;;;;;;;7.15;5.37;;;;;;;19.31;100.00;98791.91;1742898;82;20949;-64
2021/09/01 09:44:01;;;;;;;6.47;4.90;;;;;;;19.51;100.00;98788.39;1741849;82;20942;-66
2021/09/01 09:46:27;;;;;;;6.35;4.55;;;;;;;20.21;100.00;98800.06;1718968;82;20895;-65
2021/09/01 09:49:06;;;;;;;4.58;4.10;;;;;;;20.85;100.00;98790.00;1724416;83;21082;-66
2021/09/01 09:51:43;;;;;;;4.80;3.72;;;;;;;21.22;100.00;98795.44;1724609;82;20912;-67
2021/09/01 09:54:20;;;;;;;6.17;4.12;;;;;;;21.70;100.00;98792.97;1775596;80;21423;-65
2021/09/01 09:56:47;;;;;;;4.40;3.72;;;;;;;22.19;100.00;98793.55;1737447;81;21337;-65
2021/09/01 09:59:21;;;;;;;9.30;4.63;;;;;;;22.48;92.47;98790.24;1735533;82;21001;-66
2021/09/01 10:01:49;;;;;;;4.42;3.58;;;;;;;22.76;90.30;98794.83;1735738;82;21148;-66
2021/09/01 10:04:16;;;;;;;5.80;3.77;;;;;;;22.57;88.73;98789.50;1745960;81;21493;-66
2021/09/01 10:06:44;;;;;;;6.20;3.62;;;;;;;22.64;90.90;98790.27;1687863;83;20960;-66
2021/09/01 10:09:11;;;;;;;6.50;3.08;;;;;;;22.68;87.15;98785.11;1667659;84;21040;-66
2021/09/01 10:11:40;;;;;;;3.80;3.40;;;;;;;22.04;86.10;98780.08;1667414;86;20976;-66
2021/09/01 10:14:08;;;;;;;8.45;3.33;;;;;;;21.86;94.52;98783.48;1667174;84;21132;-66
2021/09/01 10:16:42;;;;;;;4.05;3.10;;;;;;;21.75;94.63;98783.95;1667266;84;21434;-65
2021/09/01 10:19:16;;;;;;;5.83;3.50;;;;;;;21.49;93.40;98780.30;1720681;83;20906;-65
2021/09/01 10:21:55;;;;;;;3.50;3.20;;;;;;;21.20;95.24;98778.61;1720721;82;21001;-66
2021/09/01 10:24:33;;;;;;;5.05;4.12;;;;;;;21.39;94.58;98781.56;1703670;83;21405;-66
2021/09/01 10:27:07;;;;;;;5.55;3.77;;;;;;;21.69;93.40;98781.83;1701345;83;21076;-66
2021/09/01 10:29:41;;;;;;;5.03;3.25;;;;;;;21.77;87.72;98779.52;1720551;82;21022;-66
2021/09/01 10:32:25;;;;;;;7.87;3.98;;;;;;;21.93;88.44;98783.69;1720802;82;20974;-65
2021/09/01 10:35:17;;;;;;;4.33;3.62;;;;;;;22.04;86.45;98777.34;1720765;83;20970;-66
2021/09/01 10:37:53;;;;;;;7.45;3.70;;;;;;;22.16;85.78;98772.97;1735520;80;20910;-65
2021/09/01 10:40:30;;;;;;;5.65;3.02;;;;;;;22.48;84.91;98772.47;1720512;83;21126;-65
2021/09/01 10:43:03;;;;;;;4.25;3.67;;;;;;;22.53;82.71;98772.20;1737792;81;21486;-66
2021/09/01 10:45:50;;;;;;;5.12;3.95;;;;;;;22.48;88.04;98771.89;1733922;80;20917;-65
2021/09/01 10:48:16;;;;;;;4.90;3.55;;;;;;;22.28;84.77;98779.77;1791046;80;20913;-65
2021/09/01 10:50:46;;;;;;;6.92;3.83;;;;;;;22.14;81.75;98767.06;1791287;80;20952;-65
2021/09/01 10:53:25;;;;;;;3.50;3.20;;;;;;;22.07;83.17;98772.33;1791246;80;21099;-65
2021/09/01 10:56:06;;;;;;;4.40;3.10;;;;;;;22.10;84.12;98769.71;1787569;80;20971;-65
2021/09/01 10:58:44;;;;;;;3.08;2.70;;;;;;;22.07;82.16;98768.23;1749428;80;20905;-65
2021/09/01 11:01:16;;;;;;;3.12;2.83;;;;;;;21.77;76.10;98768.59;1780315;80;21039;-65
2021/09/01 11:04:05;;;;;;;7.65;3.12;;;;;;;21.82;77.21;98771.08;1790942;79;20954;-66
2021/09/01 11:06:36;;;;;;;3.40;2.92;;;;;;;21.82;76.73;98771.86;1791252;80;21428;-67
2021/09/01 11:09:13;;;;;;;3.67;3.20;;;;;;;21.46;77.88;98768.70;1791018;78;20897;-66
2021/09/01 11:11:49;;;;;;;7.55;2.60;;;;;;;21.53;78.47;98772.98;1791174;80;20937;-67
2021/09/01 11:14:39;;;;;;;3.15;2.85;;;;;;;21.60;74.76;98768.30;1791008;80;21438;-67
2021/09/01 11:17:13;;;;;;;4.25;2.92;;;;;;;21.70;73.95;98775.22;1787488;80;21320;-68
2021/09/01 11:19:41;;;;;;;3.75;3.27;;;;;;;21.47;75.04;98767.55;1759565;80;21825;-67
2021/09/01 11:22:12;;;;;;;3.47;3.17;;;;;;;21.25;77.38;98762.58;1759363;80;20953;-67
2021/09/01 11:24:49;;;;;;;3.20;2.60;;;;;;;21.52;79.76;98765.94;1759562;80;20957;-66
2021/09/01 11:27:21;;;;;;;5.55;3.25;;;;;;;21.63;77.62;98767.61;1759613;80;21518;-66
2021/09/01 11:29:49;;;;;;;4.80;3.20;;;;;;;21.68;75.34;98769.30;1759438;80;20926;-67
2021/09/01 11:32:20;;;;;;;3.85;3.42;;;;;;;21.48;80.03;98758.21;1759849;80;21118;-67
2021/09/01 11:34:47;;;;;;;3.72;3.30;;;;;;;21.15;77.54;98763.27;1759692;80;21356;-65
2021/09/01 11:37:15;;;;;;;5.43;3.30;;;;;;;21.08;79.69;98759.52;1757861;80;20918;-66
2021/09/01 11:39:44;;;;;;;6.33;3.77;;;;;;;21.25;81.54;98763.36;1734910;81;20968;-65
2021/09/01 11:42:10;;;;;;;4.12;3.37;;;;;;;21.20;83.03;98761.66;1723886;81;20981;-66
2021/09/01 11:44:37;;;;;;;7.67;4.45;;;;;;;21.18;80.57;98763.93;1719738;81;21157;-66
2021/09/01 11:47:15;;;;;;;6.08;5.00;;;;;;;21.21;81.31;98761.08;1735621;81;20933;-67
2021/09/01 11:49:44;;;;;;;3.50;3.20;;;;;;;21.24;78.24;98762.33;1740872;82;21428;-67
2021/09/01 11:52:11;;;;;;;3.85;3.25;;;;;;;20.91;75.91;98759.98;1698667;80;20937;-68
2021/09/01 11:54:41;;;;;;;5.62;3.83;;;;;;;20.90;78.53;98757.03;1740804;82;20982;-67
2021/09/01 11:57:08;;;;;;;5.17;3.70;;;;;;;21.00;78.22;98758.51;1743323;81;21120;-65
2021/09/01 11:59:35;;;;;;;4.15;3.30;;;;;;;20.91;82.15;98764.07;1759704;81;21393;-66
2021/09/01 12:02:03;;;;;;;5.53;3.80;;;;;;;20.95;78.05;98756.02;1759644;80;20961;-65
2021/09/01 12:04:30;;;;;;;3.90;3.30;;;;;;;21.00;80.18;98761.23;1747553;80;21682;-67
2021/09/01 12:06:58;;;;;;;4.37;3.37;;;;;;;21.27;78.45;98760.30;1725461;81;20988;-67